Terminal Aerodrome Forecast
Issued by NWS Grand Forks, ND

Home | Current Version | Previous Version | Graphics & Text | Print | Product List | Glossary Off
Versions: 1 2 3 4 5 6 7 8 9 10 11 12 13 14 15 16 17 18 19 20 21

000
FTUS43 KFGF 300500
TAFGFK
TAF
KGFK 300520Z 3006/3106 35006KT P6SM SCT050
     FM301400 01005KT P6SM SCT250
     FM301900 13007KT P6SM SCT250
     FM302300 13012KT P6SM BKN250=

USA.gov is the U.S. government's official web portal to all federal, state and local government web resources and services.